createdAt,value
2016-04-07T00:00:23.463Z,948.49
2016-04-07T00:01:23.464Z,948.46
2016-04-07T00:02:23.483Z,948.44
2016-04-07T00:03:23.502Z,948.4
2016-04-07T00:04:23.520Z,948.38
2016-04-07T00:05:23.538Z,948.4
2016-04-07T00:06:23.541Z,948.37
2016-04-07T00:07:23.559Z,948.38
2016-04-07T00:08:23.656Z,948.37
2016-04-07T00:09:23.596Z,948.37
2016-04-07T00:10:23.599Z,948.33
2016-04-07T00:11:23.617Z,948.38
2016-04-07T00:12:23.652Z,948.4
2016-04-07T00:13:23.638Z,948.38
2016-04-07T00:14:23.657Z,948.38
2016-04-07T00:15:23.690Z,948.43
2016-04-07T00:16:23.717Z,948.37
2016-04-07T00:17:23.764Z,948.38
2016-04-07T00:18:23.826Z,948.33
2016-04-07T00:19:23.889Z,948.34
2016-04-07T00:20:23.952Z,948.32
2016-04-07T00:21:23.983Z,948.38
2016-04-07T00:22:24.017Z,948.34
2016-04-07T00:23:24.113Z,948.33
2016-04-07T00:24:24.085Z,948.31
2016-04-07T00:25:24.104Z,948.34
2016-04-07T00:26:24.132Z,948.3
2016-04-07T00:27:24.156Z,948.33
2016-04-07T00:28:24.179Z,948.29
2016-04-07T00:29:24.205Z,948.27
2016-04-07T00:30:24.212Z,948.3
2016-04-07T00:31:24.235Z,948.28
2016-04-07T00:32:24.255Z,948.32
2016-04-07T00:33:24.259Z,948.31
2016-04-07T00:34:24.279Z,948.37
2016-04-07T00:35:24.331Z,948.36
2016-04-07T00:36:24.319Z,948.35
2016-04-07T00:37:24.339Z,948.36
2016-04-07T00:38:24.404Z,948.36
2016-04-07T00:39:24.361Z,948.32
2016-04-07T00:40:24.380Z,948.36
2016-04-07T00:41:24.400Z,948.37
2016-04-07T00:42:24.402Z,948.36
2016-04-07T00:43:24.421Z,948.36
2016-04-07T00:44:24.456Z,948.38
2016-04-07T00:45:24.458Z,948.37
2016-04-07T00:46:24.462Z,948.38
2016-04-07T00:47:24.479Z,948.39
2016-04-07T00:48:24.497Z,948.42
2016-04-07T00:49:24.500Z,948.4
2016-04-07T00:50:24.518Z,948.43
2016-04-07T00:51:24.537Z,948.37
2016-04-07T00:52:24.555Z,948.34
2016-04-07T00:53:24.573Z,948.39
2016-04-07T00:54:24.576Z,948.38
2016-04-07T00:55:24.595Z,948.39
2016-04-07T00:56:24.613Z,948.4
2016-04-07T00:57:24.616Z,948.4
2016-04-07T00:58:24.650Z,948.39
2016-04-07T00:59:24.667Z,948.39
2016-04-07T01:00:24.670Z,948.4
2016-04-07T01:01:24.673Z,948.35
2016-04-07T01:02:24.708Z,948.33
2016-04-07T01:03:24.710Z,948.38
2016-04-07T01:04:24.728Z,948.33
2016-04-07T01:05:24.747Z,948.34
2016-04-07T01:06:24.750Z,948.28
2016-04-07T01:07:24.768Z,948.32
2016-04-07T01:08:24.911Z,948.3
2016-04-07T01:09:24.789Z,948.3
2016-04-07T01:10:24.807Z,948.26
2016-04-07T01:11:24.825Z,948.29
2016-04-07T01:12:24.844Z,948.32
2016-04-07T01:13:24.877Z,948.31
2016-04-07T01:14:24.865Z,948.26
2016-04-07T01:15:24.883Z,948.26
2016-04-07T01:16:24.901Z,948.29
2016-04-07T01:17:24.903Z,948.32
2016-04-07T01:18:24.922Z,948.31
2016-04-07T01:19:24.940Z,948.33
2016-04-07T01:20:24.959Z,948.31
2016-04-07T01:21:24.977Z,948.28
2016-04-07T01:22:24.979Z,948.29
2016-04-07T01:23:25.014Z,948.25
2016-04-07T01:24:25.016Z,948.25
2016-04-07T01:25:25.034Z,948.27
2016-04-07T01:26:25.037Z,948.25
2016-04-07T01:27:25.072Z,948.29
2016-04-07T01:28:25.074Z,948.28
2016-04-07T01:29:25.092Z,948.28
2016-04-07T01:30:25.095Z,948.29
2016-04-07T01:31:25.113Z,948.26
2016-04-07T01:32:25.131Z,948.26
2016-04-07T01:33:25.150Z,948.28
2016-04-07T01:34:25.152Z,948.3
2016-04-07T01:35:25.171Z,948.29
2016-04-07T01:36:25.189Z,948.3
2016-04-07T01:37:25.208Z,948.22
2016-04-07T01:38:25.211Z,948.22
2016-04-07T01:39:25.229Z,948.24
2016-04-07T01:40:25.247Z,948.24
2016-04-07T01:41:25.265Z,948.24
2016-04-07T01:42:25.299Z,948.23
2016-04-07T01:43:25.286Z,948.17
2016-04-07T01:44:25.305Z,948.17
2016-04-07T01:45:25.323Z,948.17
2016-04-07T01:46:25.326Z,948.15
2016-04-07T01:47:25.343Z,948.15
2016-04-07T01:48:25.362Z,948.13
2016-04-07T01:49:25.381Z,948.17
2016-04-07T01:50:25.384Z,948.12
2016-04-07T01:51:25.401Z,948.08
2016-04-07T01:52:25.420Z,948.06
2016-04-07T01:53:25.423Z,948.05
2016-04-07T01:54:25.440Z,948.04
2016-04-07T01:55:25.459Z,948.05
2016-04-07T01:56:25.493Z,948.09
2016-04-07T01:57:25.495Z,947.99
2016-04-07T01:58:25.498Z,948.03
2016-04-07T01:59:25.516Z,947.99
2016-04-07T02:00:25.519Z,947.99
2016-04-07T02:01:25.538Z,947.96
2016-04-07T02:02:25.556Z,947.95
2016-04-07T02:03:25.574Z,947.92
2016-04-07T02:04:25.577Z,947.89
2016-04-07T02:05:25.595Z,947.89
2016-04-07T02:06:25.613Z,947.92
2016-04-07T02:07:25.632Z,947.92
2016-04-07T02:08:25.635Z,947.91
2016-04-07T02:09:25.653Z,947.92
2016-04-07T02:10:25.672Z,947.96
2016-04-07T02:11:25.690Z,947.94
2016-04-07T02:12:25.692Z,947.95
2016-04-07T02:13:25.711Z,947.94
2016-04-07T02:14:25.729Z,947.92
2016-04-07T02:15:25.732Z,947.93
2016-04-07T02:16:25.750Z,947.93
2016-04-07T02:17:25.768Z,947.9
2016-04-07T02:18:25.787Z,947.92
2016-04-07T02:19:25.790Z,947.88
2016-04-07T02:20:25.807Z,947.87
2016-04-07T02:21:25.826Z,947.82
2016-04-07T02:22:25.829Z,947.84
2016-04-07T02:23:25.847Z,947.81
2016-04-07T02:24:25.865Z,947.85
2016-04-07T02:25:25.884Z,947.86
2016-04-07T02:26:25.902Z,947.82
2016-04-07T02:27:25.904Z,947.8
2016-04-07T02:28:25.923Z,947.75
2016-04-07T02:29:25.942Z,947.75
2016-04-07T02:30:25.945Z,947.77
2016-04-07T02:31:25.962Z,947.72
2016-04-07T02:32:25.980Z,947.73
2016-04-07T02:33:25.983Z,947.76
2016-04-07T02:34:26.002Z,947.72
2016-04-07T02:35:26.020Z,947.76
2016-04-07T02:36:26.023Z,947.79
2016-04-07T02:37:26.041Z,947.82
2016-04-07T02:38:26.058Z,947.82
2016-04-07T02:39:26.077Z,947.84
2016-04-07T02:40:26.080Z,947.84
2016-04-07T02:41:26.098Z,947.81
2016-04-07T02:42:26.116Z,947.84
2016-04-07T02:43:26.119Z,947.87
2016-04-07T02:44:26.138Z,947.84
2016-04-07T02:45:26.156Z,947.83
2016-04-07T02:46:26.159Z,947.87
2016-04-07T02:47:26.193Z,947.86
2016-04-07T02:48:26.196Z,947.79
2016-04-07T02:49:26.213Z,947.81
2016-04-07T02:50:26.216Z,947.83
2016-04-07T02:51:26.235Z,947.81
2016-04-07T02:52:26.253Z,947.82
2016-04-07T02:53:26.271Z,947.82
2016-04-07T02:54:26.274Z,947.83
2016-04-07T02:55:26.309Z,947.83
2016-04-07T02:56:26.311Z,947.81
2016-04-07T02:57:26.314Z,947.8
2016-04-07T02:58:26.347Z,947.78
2016-04-07T02:59:26.350Z,947.77
2016-04-07T03:00:26.368Z,947.78
2016-04-07T03:01:26.387Z,947.78
2016-04-07T03:02:26.389Z,947.74
2016-04-07T03:03:26.408Z,947.74
2016-04-07T03:04:26.411Z,947.73
2016-04-07T03:05:26.429Z,947.7
2016-04-07T03:06:26.447Z,947.71
2016-04-07T03:07:26.466Z,947.73
2016-04-07T03:08:26.469Z,947.72
2016-04-07T03:09:26.486Z,947.71
2016-04-07T03:10:26.505Z,947.69
2016-04-07T03:11:26.508Z,947.74
2016-04-07T03:12:26.526Z,947.74
2016-04-07T03:13:26.543Z,947.78
2016-04-07T03:14:26.562Z,947.78
2016-04-07T03:15:26.565Z,947.77
2016-04-07T03:16:26.583Z,947.74
2016-04-07T03:17:26.601Z,947.74
2016-04-07T03:18:26.604Z,947.78
2016-04-07T03:19:26.622Z,947.73
2016-04-07T03:20:26.641Z,947.8
2016-04-07T03:21:26.659Z,947.81
2016-04-07T03:22:26.662Z,947.79
2016-04-07T03:23:26.679Z,947.82
2016-04-07T03:24:26.698Z,947.82
2016-04-07T03:25:26.717Z,947.76
2016-04-07T03:26:26.735Z,947.77
2016-04-07T03:27:26.737Z,947.72
2016-04-07T03:28:26.756Z,947.73
2016-04-07T03:29:26.775Z,947.67
2016-04-07T03:30:26.777Z,947.66
2016-04-07T03:31:26.795Z,947.6
2016-04-07T03:32:26.814Z,947.64
2016-04-07T03:33:26.817Z,947.57
2016-04-07T03:34:26.834Z,947.59
2016-04-07T03:35:26.853Z,947.59
2016-04-07T03:36:26.872Z,947.59
2016-04-07T03:37:26.875Z,947.58
2016-04-07T03:38:26.892Z,947.58
2016-04-07T03:39:26.911Z,947.59
2016-04-07T03:40:26.930Z,947.58
2016-04-07T03:41:26.932Z,947.54
2016-04-07T03:42:26.950Z,947.55
2016-04-07T03:43:26.968Z,947.53
2016-04-07T03:44:26.987Z,947.51
2016-04-07T03:45:26.989Z,947.57
2016-04-07T03:46:27.008Z,947.54
2016-04-07T03:47:27.027Z,947.56
2016-04-07T03:48:27.043Z,947.54
2016-04-07T03:49:27.046Z,947.57
2016-04-07T03:50:27.065Z,947.6
2016-04-07T03:51:27.084Z,947.58
2016-04-07T03:52:27.101Z,947.56
2016-04-07T03:53:27.105Z,947.54
2016-04-07T03:54:27.124Z,947.61
2016-04-07T03:55:27.141Z,947.56
2016-04-07T03:56:27.159Z,947.55
2016-04-07T03:57:27.162Z,947.57
2016-04-07T03:58:27.181Z,947.58
2016-04-07T03:59:27.198Z,947.62
2016-04-07T04:00:27.217Z,947.59
2016-04-07T04:01:27.236Z,947.63
2016-04-07T04:02:27.238Z,947.61
2016-04-07T04:03:27.256Z,947.65
2016-04-07T04:04:27.275Z,947.66
2016-04-07T04:05:27.278Z,947.59
2016-04-07T04:06:27.295Z,947.6
2016-04-07T04:07:27.314Z,947.62
2016-04-07T04:08:27.333Z,947.62
2016-04-07T04:09:27.336Z,947.63
2016-04-07T04:10:27.353Z,947.6
2016-04-07T04:11:27.372Z,947.6
2016-04-07T04:12:27.391Z,947.6
2016-04-07T04:13:27.393Z,947.63
2016-04-07T04:14:27.411Z,947.61
2016-04-07T04:15:27.430Z,947.59
2016-04-07T04:16:27.432Z,947.54
2016-04-07T04:17:27.466Z,947.59
2016-04-07T04:18:27.469Z,947.54
2016-04-07T04:19:27.488Z,947.59
2016-04-07T04:20:27.490Z,947.58
2016-04-07T04:21:27.524Z,947.59
2016-04-07T04:22:27.527Z,947.57
2016-04-07T04:23:27.529Z,947.61
2016-04-07T04:24:27.548Z,947.65
2016-04-07T04:25:27.566Z,947.59
2016-04-07T04:26:27.584Z,947.62
2016-04-07T04:27:27.602Z,947.64
2016-04-07T04:28:27.605Z,947.65
2016-04-07T04:29:27.624Z,947.68
2016-04-07T04:30:27.641Z,947.66
2016-04-07T04:31:27.659Z,947.71
2016-04-07T04:32:27.662Z,947.68
2016-04-07T04:33:27.681Z,947.7
2016-04-07T04:34:27.700Z,947.67
2016-04-07T04:35:27.717Z,947.67
2016-04-07T04:36:27.720Z,947.67
2016-04-07T04:37:27.738Z,947.68
2016-04-07T04:38:27.756Z,947.7
2016-04-07T04:39:27.759Z,947.74
2016-04-07T04:40:27.778Z,947.76
2016-04-07T04:41:27.797Z,947.73
2016-04-07T04:42:27.814Z,947.75
2016-04-07T04:43:27.832Z,947.74
2016-04-07T04:44:27.835Z,947.74
2016-04-07T04:45:27.854Z,947.78
2016-04-07T04:46:27.872Z,947.79
2016-04-07T04:47:27.890Z,947.78
2016-04-07T04:48:27.893Z,947.79
2016-04-07T04:49:27.911Z,947.77
2016-04-07T04:50:27.946Z,947.75
2016-04-07T04:51:27.948Z,947.83
2016-04-07T04:52:27.966Z,947.82
2016-04-07T04:53:28.001Z,947.79
2016-04-07T04:54:27.972Z,947.82
2016-04-07T04:55:27.990Z,947.86
2016-04-07T04:56:28.009Z,947.88
2016-04-07T04:57:28.027Z,947.83
2016-04-07T04:58:28.045Z,947.9
2016-04-07T04:59:28.048Z,947.89
2016-04-07T05:00:28.065Z,947.91
2016-04-07T05:01:28.084Z,947.9
2016-04-07T05:02:28.103Z,947.96
2016-04-07T05:03:28.106Z,947.92
2016-04-07T05:04:28.139Z,947.93
2016-04-07T05:05:28.142Z,947.92
2016-04-07T05:06:28.145Z,947.87
2016-04-07T05:07:28.164Z,947.87
2016-04-07T05:08:28.181Z,947.85
2016-04-07T05:09:28.200Z,947.87
2016-04-07T05:10:28.217Z,947.83
2016-04-07T05:11:28.236Z,947.88
2016-04-07T05:12:28.239Z,947.83
2016-04-07T05:13:28.257Z,947.83
2016-04-07T05:14:28.276Z,947.85
2016-04-07T05:15:28.294Z,947.84
2016-04-07T05:16:28.297Z,947.9
2016-04-07T05:17:28.315Z,947.86
2016-04-07T05:18:28.318Z,947.92
2016-04-07T05:19:28.367Z,947.93
2016-04-07T05:20:28.354Z,947.91
2016-04-07T05:21:28.372Z,947.9
2016-04-07T05:22:28.375Z,947.91
2016-04-07T05:23:28.393Z,947.94
2016-04-07T05:24:28.427Z,947.94
2016-04-07T05:25:28.429Z,947.93
2016-04-07T05:26:28.432Z,947.92
2016-04-07T05:27:28.451Z,947.96
2016-04-07T05:28:28.470Z,947.91
2016-04-07T05:29:28.488Z,947.94
2016-04-07T05:30:28.506Z,947.94
2016-04-07T05:31:28.509Z,947.95
2016-04-07T05:32:28.526Z,947.94
2016-04-07T05:33:28.545Z,947.95
2016-04-07T05:34:28.564Z,947.95
2016-04-07T05:35:28.567Z,947.99
2016-04-07T05:36:28.584Z,948
2016-04-07T05:37:28.603Z,948
2016-04-07T05:38:28.622Z,948.05
2016-04-07T05:39:28.640Z,948.05
2016-04-07T05:40:28.642Z,948.05
2016-04-07T05:41:28.676Z,948.06
2016-04-07T05:42:28.678Z,948.09
2016-04-07T05:43:28.697Z,948.09
2016-04-07T05:44:28.700Z,948.12
2016-04-07T05:45:28.719Z,948.14
2016-04-07T05:46:28.736Z,948.15
2016-04-07T05:47:28.755Z,948.18
2016-04-07T05:48:28.774Z,948.23
2016-04-07T05:49:28.777Z,948.2
2016-04-07T05:50:28.794Z,948.23
2016-04-07T05:51:28.813Z,948.18
2016-04-07T05:52:28.831Z,948.24
2016-04-07T05:53:28.833Z,948.28
2016-04-07T05:54:28.852Z,948.28
2016-04-07T05:55:28.871Z,948.25
2016-04-07T05:56:28.889Z,948.29
2016-04-07T05:57:28.891Z,948.3
2016-04-07T05:58:28.909Z,948.34
2016-04-07T05:59:28.928Z,948.31
2016-04-07T06:00:28.946Z,948.32
2016-04-07T06:01:28.964Z,948.29
2016-04-07T06:02:28.967Z,948.29
2016-04-07T06:03:28.985Z,948.35
2016-04-07T06:04:29.004Z,948.29
2016-04-07T06:05:29.022Z,948.33
2016-04-07T06:06:29.025Z,948.28
2016-04-07T06:07:29.042Z,948.32
2016-04-07T06:08:29.066Z,948.34
2016-04-07T06:09:29.069Z,948.31
2016-04-07T06:10:29.103Z,948.31
2016-04-07T06:11:29.106Z,948.3
2016-04-07T06:12:29.124Z,948.31
2016-04-07T06:13:29.142Z,948.3
2016-04-07T06:14:29.145Z,948.3
2016-04-07T06:15:29.163Z,948.3
2016-04-07T06:16:29.182Z,948.36
2016-04-07T06:17:29.200Z,948.34
2016-04-07T06:18:29.202Z,948.32
2016-04-07T06:19:29.236Z,948.33
2016-04-07T06:20:29.239Z,948.31
2016-04-07T06:21:29.258Z,948.29
2016-04-07T06:22:29.276Z,948.32
2016-04-07T06:23:29.294Z,948.36
2016-04-07T06:24:29.328Z,948.31
2016-04-07T06:25:29.315Z,948.33
2016-04-07T06:26:29.333Z,948.32
2016-04-07T06:27:29.351Z,948.31
2016-04-07T06:28:29.354Z,948.35
2016-04-07T06:29:29.373Z,948.32
2016-04-07T06:30:29.390Z,948.34
2016-04-07T06:31:29.409Z,948.38
2016-04-07T06:32:29.428Z,948.33
2016-04-07T06:33:29.445Z,948.34
2016-04-07T06:34:29.448Z,948.35
2016-04-07T06:35:29.467Z,948.37
2016-04-07T06:36:29.486Z,948.35
2016-04-07T06:37:29.503Z,948.36
2016-04-07T06:38:29.506Z,948.38
2016-04-07T06:39:29.555Z,948.34
2016-04-07T06:40:29.543Z,948.35
2016-04-07T06:41:29.561Z,948.39
2016-04-07T06:42:29.580Z,948.35
2016-04-07T06:43:29.583Z,948.36
2016-04-07T06:44:29.601Z,948.42
2016-04-07T06:45:29.619Z,948.38
2016-04-07T06:46:29.637Z,948.4
2016-04-07T06:47:29.655Z,948.41
2016-04-07T06:48:29.674Z,948.39
2016-04-07T06:49:29.677Z,948.38
2016-04-07T06:50:29.695Z,948.39
2016-04-07T06:51:29.713Z,948.41
2016-04-07T06:52:29.732Z,948.42
2016-04-07T06:53:29.734Z,948.42
2016-04-07T06:54:29.752Z,948.38
2016-04-07T06:55:29.770Z,948.41
2016-04-07T06:56:29.789Z,948.4
2016-04-07T06:57:29.807Z,948.38
2016-04-07T06:58:29.826Z,948.44
2016-04-07T06:59:29.844Z,948.42
2016-04-07T07:00:29.846Z,948.4
2016-04-07T07:01:29.865Z,948.4
2016-04-07T07:02:29.883Z,948.41
2016-04-07T07:03:29.901Z,948.4
2016-04-07T07:04:29.920Z,948.39
2016-04-07T07:05:29.923Z,948.42
2016-04-07T07:06:29.942Z,948.34
2016-04-07T07:07:29.959Z,948.38
2016-04-07T07:08:29.978Z,948.38
2016-04-07T07:09:30.043Z,948.35
2016-04-07T07:10:30.014Z,948.38
2016-04-07T07:11:30.033Z,948.37
2016-04-07T07:12:30.035Z,948.4
2016-04-07T07:13:30.053Z,948.4
2016-04-07T07:14:30.072Z,948.39
2016-04-07T07:15:30.106Z,948.41
2016-04-07T07:16:30.094Z,948.39
2016-04-07T07:17:30.111Z,948.36
2016-04-07T07:18:30.130Z,948.46
2016-04-07T07:19:30.147Z,948.45
2016-04-07T07:20:30.166Z,948.4
2016-04-07T07:21:30.185Z,948.41
2016-04-07T07:22:30.202Z,948.39
2016-04-07T07:23:30.221Z,948.41
2016-04-07T07:24:30.239Z,948.41
2016-04-07T07:25:30.242Z,948.38
2016-04-07T07:26:30.260Z,948.39
2016-04-07T07:27:30.279Z,948.41
2016-04-07T07:28:30.297Z,948.4
2016-04-07T07:29:30.315Z,948.37
2016-04-07T07:30:30.334Z,948.36
2016-04-07T07:31:30.336Z,948.37
2016-04-07T07:32:30.355Z,948.38
2016-04-07T07:33:30.363Z,948.35
2016-04-07T07:34:30.381Z,948.33
2016-04-07T07:35:30.399Z,948.38
2016-04-07T07:36:30.434Z,948.41
2016-04-07T07:37:30.452Z,948.38
2016-04-07T07:38:30.455Z,948.38
2016-04-07T07:39:30.525Z,948.41
2016-04-07T07:40:30.481Z,948.36
2016-04-07T07:41:30.498Z,948.46
2016-04-07T07:42:30.517Z,948.4
2016-04-07T07:43:30.551Z,948.39
2016-04-07T07:44:30.553Z,948.44
2016-04-07T07:45:30.572Z,948.39
2016-04-07T07:46:30.591Z,948.44
2016-04-07T07:47:30.609Z,948.44
2016-04-07T07:48:30.612Z,948.44
2016-04-07T07:49:30.630Z,948.47
2016-04-07T07:50:30.648Z,948.47
2016-04-07T07:51:30.713Z,948.5
2016-04-07T07:52:30.700Z,948.48
2016-04-07T07:53:30.702Z,948.44
2016-04-07T07:54:30.799Z,948.48
2016-04-07T07:55:30.724Z,948.51
2016-04-07T07:56:30.742Z,948.5
2016-04-07T07:57:30.760Z,948.48
2016-04-07T07:58:30.779Z,948.52
2016-04-07T07:59:30.797Z,948.54
2016-04-07T08:00:30.816Z,948.51
2016-04-07T08:01:30.834Z,948.55
2016-04-07T08:02:30.852Z,948.55
2016-04-07T08:03:30.871Z,948.55
2016-04-07T08:04:30.873Z,948.52
2016-04-07T08:05:30.892Z,948.52
2016-04-07T08:06:30.909Z,948.52
2016-04-07T08:07:30.928Z,948.54
2016-04-07T08:08:30.946Z,948.57
2016-04-07T08:09:30.965Z,948.54
2016-04-07T08:10:30.984Z,948.56
2016-04-07T08:11:31.001Z,948.54
2016-04-07T08:12:31.020Z,948.55
2016-04-07T08:13:31.022Z,948.51
2016-04-07T08:14:31.041Z,948.55
2016-04-07T08:15:31.059Z,948.56
2016-04-07T08:16:31.078Z,948.56
2016-04-07T08:17:31.096Z,948.6
2016-04-07T08:18:31.114Z,948.57
2016-04-07T08:19:31.133Z,948.58
2016-04-07T08:20:31.150Z,948.64
2016-04-07T08:21:31.200Z,948.65
2016-04-07T08:22:31.188Z,948.64
2016-04-07T08:23:31.205Z,948.61
2016-04-07T08:24:31.239Z,948.64
2016-04-07T08:25:31.226Z,948.64
2016-04-07T08:26:31.244Z,948.61
2016-04-07T08:27:31.263Z,948.65
2016-04-07T08:28:31.282Z,948.64
2016-04-07T08:29:31.722Z,948.65
2016-04-07T08:30:31.319Z,948.65
2016-04-07T08:31:31.337Z,948.67
2016-04-07T08:32:31.355Z,948.7
2016-04-07T08:33:31.373Z,948.67
2016-04-07T08:34:31.391Z,948.7
2016-04-07T08:35:31.409Z,948.69
2016-04-07T08:36:31.444Z,948.66
2016-04-07T08:37:31.448Z,948.72
2016-04-07T08:38:31.450Z,948.73
2016-04-07T08:39:31.469Z,948.66
2016-04-07T08:40:31.486Z,948.75
2016-04-07T08:41:31.505Z,948.75
2016-04-07T08:42:31.523Z,948.71
2016-04-07T08:43:31.541Z,948.66
2016-04-07T08:44:31.560Z,948.65
2016-04-07T08:45:31.579Z,948.67
2016-04-07T08:46:31.597Z,948.69
2016-04-07T08:47:31.615Z,948.65
2016-04-07T08:48:31.633Z,948.62
2016-04-07T08:49:31.651Z,948.65
2016-04-07T08:50:31.670Z,948.65
2016-04-07T08:51:31.687Z,948.72
2016-04-07T08:52:31.690Z,948.62
2016-04-07T08:53:31.709Z,948.7
2016-04-07T08:54:31.728Z,948.69
2016-04-07T08:55:31.745Z,948.63
2016-04-07T08:56:31.764Z,948.61
2016-04-07T08:57:31.782Z,948.59
2016-04-07T08:58:31.800Z,948.65
2016-04-07T08:59:31.819Z,948.67
2016-04-07T09:00:31.837Z,948.68
2016-04-07T09:01:31.840Z,948.69
2016-04-07T09:02:31.875Z,948.67
2016-04-07T09:03:31.877Z,948.7
2016-04-07T09:04:31.895Z,948.69
2016-04-07T09:05:31.913Z,948.73
2016-04-07T09:06:31.947Z,948.67
2016-04-07T09:07:31.949Z,948.68
2016-04-07T09:08:31.968Z,948.72
2016-04-07T09:09:31.986Z,948.75
2016-04-07T09:10:32.005Z,948.7
2016-04-07T09:11:32.023Z,948.68
2016-04-07T09:12:32.042Z,948.72
2016-04-07T09:13:32.075Z,948.7
2016-04-07T09:14:32.078Z,948.64
2016-04-07T09:15:32.080Z,948.7
2016-04-07T09:16:32.099Z,948.64
2016-04-07T09:17:32.118Z,948.63
2016-04-07T09:18:32.135Z,948.67
2016-04-07T09:19:32.154Z,948.64
2016-04-07T09:20:32.172Z,948.67
2016-04-07T09:21:32.207Z,948.62
2016-04-07T09:22:32.233Z,948.62
2016-04-07T09:23:32.287Z,948.63
2016-04-07T09:24:32.342Z,948.62
2016-04-07T09:25:32.397Z,948.67
2016-04-07T09:26:32.451Z,948.66
2016-04-07T09:27:32.491Z,948.68
2016-04-07T09:28:32.524Z,948.63
2016-04-07T09:29:32.554Z,948.64
2016-04-07T09:30:32.570Z,948.62
2016-04-07T09:31:32.602Z,948.62
2016-04-07T09:32:32.643Z,948.6
2016-04-07T09:33:32.650Z,948.59
2016-04-07T09:34:32.673Z,948.57
2016-04-07T09:35:32.695Z,948.57
2016-04-07T09:36:32.719Z,948.61
2016-04-07T09:37:32.740Z,948.63
2016-04-07T09:38:32.760Z,948.63
2016-04-07T09:39:32.781Z,948.59
2016-04-07T09:40:32.801Z,948.62
2016-04-07T09:41:32.821Z,948.56
2016-04-07T09:42:32.841Z,948.56
2016-04-07T09:43:32.875Z,948.54
2016-04-07T09:44:32.879Z,948.55
2016-04-07T09:45:32.882Z,948.54
2016-04-07T09:46:32.901Z,948.55
2016-04-07T09:47:32.919Z,948.6
2016-04-07T09:48:32.938Z,948.58
2016-04-07T09:49:32.972Z,948.62
2016-04-07T09:50:33.006Z,948.54
2016-04-07T09:51:32.993Z,948.49
2016-04-07T09:52:33.011Z,948.51
2016-04-07T09:53:33.029Z,948.48
2016-04-07T09:54:33.048Z,948.44
2016-04-07T09:55:33.066Z,948.49
2016-04-07T09:56:33.085Z,948.51
2016-04-07T09:57:33.102Z,948.51
2016-04-07T09:58:33.121Z,948.49
2016-04-07T09:59:33.140Z,948.54
2016-04-07T10:00:33.142Z,948.46
2016-04-07T10:01:33.160Z,948.44
2016-04-07T10:02:33.194Z,948.43
2016-04-07T10:03:33.197Z,948.37
2016-04-07T10:04:33.215Z,948.43
2016-04-07T10:05:33.234Z,948.42
2016-04-07T10:06:33.268Z,948.44
2016-04-07T10:07:33.271Z,948.42
2016-04-07T10:08:33.288Z,948.4
2016-04-07T10:09:33.306Z,948.42
2016-04-07T10:10:33.325Z,948.4
2016-04-07T10:11:33.344Z,948.4
2016-04-07T10:12:33.361Z,948.39
2016-04-07T10:13:33.380Z,948.37
2016-04-07T10:14:33.398Z,948.35
2016-04-07T10:15:33.416Z,948.4
2016-04-07T10:16:33.436Z,948.35
2016-04-07T10:17:33.438Z,948.32
2016-04-07T10:18:33.456Z,948.36
2016-04-07T10:19:33.475Z,948.32
2016-04-07T10:20:33.508Z,948.33
2016-04-07T10:21:33.511Z,948.32
2016-04-07T10:22:33.529Z,948.31
2016-04-07T10:23:33.548Z,948.25
2016-04-07T10:24:33.566Z,948.3
2016-04-07T10:25:33.585Z,948.35
2016-04-07T10:26:33.619Z,948.3
2016-04-07T10:27:33.637Z,948.27
2016-04-07T10:28:33.640Z,948.3
2016-04-07T10:29:33.657Z,948.23
2016-04-07T10:30:33.676Z,948.3
2016-04-07T10:31:33.693Z,948.27
2016-04-07T10:32:33.728Z,948.29
2016-04-07T10:33:33.731Z,948.31
2016-04-07T10:34:33.749Z,948.29
2016-04-07T10:35:33.752Z,948.28
2016-04-07T10:36:33.770Z,948.29
2016-04-07T10:37:33.789Z,948.27
2016-04-07T10:38:33.806Z,948.29
2016-04-07T10:39:33.825Z,948.27
2016-04-07T10:40:33.842Z,948.28
2016-04-07T10:41:33.861Z,948.35
2016-04-07T10:42:33.880Z,948.31
2016-04-07T10:43:33.898Z,948.33
2016-04-07T10:44:33.917Z,948.3
2016-04-07T10:45:33.936Z,948.28
2016-04-07T10:46:33.953Z,948.33
2016-04-07T10:47:33.972Z,948.31
2016-04-07T10:48:33.990Z,948.31
2016-04-07T10:49:34.008Z,948.31
2016-04-07T10:50:34.027Z,948.27
2016-04-07T10:51:34.045Z,948.27
2016-04-07T10:52:34.064Z,948.29
2016-04-07T10:53:34.082Z,948.32
2016-04-07T10:54:34.100Z,948.3
2016-04-07T10:55:34.118Z,948.3
2016-04-07T10:56:34.136Z,948.29
2016-04-07T10:57:34.155Z,948.26
2016-04-07T10:58:34.173Z,948.31
2016-04-07T10:59:34.191Z,948.24
2016-04-07T11:00:34.209Z,948.25
2016-04-07T11:01:34.228Z,948.27
2016-04-07T11:02:34.246Z,948.27
2016-04-07T11:03:34.265Z,948.24
2016-04-07T11:04:34.283Z,948.25
2016-04-07T11:05:34.301Z,948.24
2016-04-07T11:06:34.320Z,948.23
2016-04-07T11:07:34.353Z,948.26
2016-04-07T11:08:34.356Z,948.28
2016-04-07T11:09:34.374Z,948.25
2016-04-07T11:10:34.392Z,948.19
2016-04-07T11:11:34.411Z,948.22
2016-04-07T11:12:34.445Z,948.18
2016-04-07T11:13:34.448Z,948.22
2016-04-07T11:14:34.467Z,948.2
2016-04-07T11:15:34.484Z,948.19
2016-04-07T11:16:34.503Z,948.15
2016-04-07T11:17:34.521Z,948.18
2016-04-07T11:18:34.539Z,948.12
2016-04-07T11:19:34.886Z,948.13
2016-04-07T11:20:34.576Z,948.23
2016-04-07T11:21:34.595Z,948.19
2016-04-07T11:22:34.613Z,948.19
2016-04-07T11:23:34.631Z,948.23
2016-04-07T11:24:34.649Z,948.25
2016-04-07T11:25:34.668Z,948.25
2016-04-07T11:26:34.685Z,948.24
2016-04-07T11:27:34.719Z,948.24
2016-04-07T11:28:34.738Z,948.26
2016-04-07T11:29:34.757Z,948.25
2016-04-07T11:30:34.775Z,948.24
2016-04-07T11:31:34.793Z,948.27
2016-04-07T11:32:34.812Z,948.27
2016-04-07T11:33:34.830Z,948.24
2016-04-07T11:34:34.848Z,948.2
2016-04-07T11:35:34.866Z,948.15
2016-04-07T11:36:34.885Z,948.16
2016-04-07T11:37:34.903Z,948.12
2016-04-07T11:38:34.921Z,948.12
2016-04-07T11:39:34.940Z,948.11
2016-04-07T11:40:34.959Z,948.07
2016-04-07T11:41:34.976Z,948.14
2016-04-07T11:42:35.010Z,948.12
2016-04-07T11:43:35.013Z,948.12
2016-04-07T11:44:35.047Z,948.07
2016-04-07T11:45:35.050Z,948.15
2016-04-07T11:46:35.084Z,948.15
2016-04-07T11:47:35.102Z,948.16
2016-04-07T11:48:35.120Z,948.18
2016-04-07T11:49:35.139Z,948.18
2016-04-07T11:50:35.156Z,948.15
2016-04-07T11:51:35.175Z,948.14
2016-04-07T11:52:35.194Z,948.15
2016-04-07T11:53:35.211Z,948.12
2016-04-07T11:54:35.230Z,948.12
2016-04-07T11:55:35.249Z,948.06
2016-04-07T11:56:35.283Z,948.08
2016-04-07T11:57:35.300Z,948.13
2016-04-07T11:58:35.319Z,948.1
2016-04-07T11:59:35.322Z,948.11
2016-04-07T12:00:35.355Z,948.11
2016-04-07T12:01:35.374Z,948.09
2016-04-07T12:02:35.393Z,948.08
2016-04-07T12:03:35.410Z,948.09
2016-04-07T12:04:35.429Z,948.06
2016-04-07T12:05:35.447Z,948.07
2016-04-07T12:06:35.465Z,948.04
2016-04-07T12:07:35.484Z,948.07
2016-04-07T12:08:35.502Z,948.07
2016-04-07T12:09:35.536Z,948.07
2016-04-07T12:10:35.539Z,948.09
2016-04-07T12:11:35.572Z,948.03
2016-04-07T12:12:35.590Z,948.02
2016-04-07T12:13:35.609Z,948.05
2016-04-07T12:14:35.628Z,948.01
2016-04-07T12:15:35.646Z,948.03
2016-04-07T12:16:35.664Z,948.03
2016-04-07T12:17:35.683Z,948.03
2016-04-07T12:18:35.700Z,947.99
2016-04-07T12:19:35.719Z,947.97
2016-04-07T12:20:35.737Z,947.99
2016-04-07T12:21:35.755Z,947.94
2016-04-07T12:22:35.774Z,947.98
2016-04-07T12:23:35.791Z,947.96
2016-04-07T12:24:35.810Z,947.96
2016-04-07T12:25:35.844Z,947.93
2016-04-07T12:26:35.847Z,947.91
2016-04-07T12:27:35.881Z,947.9
2016-04-07T12:28:35.899Z,947.89
2016-04-07T12:29:35.918Z,947.85
2016-04-07T12:30:35.936Z,947.84